sensor_id;sensor_type;location;lat;lon;timestamp;P1;durP1;ratioP1;P2;durP2;ratioP2
9467;SDS011;4772;52.382;9.752;2023-05-21T00:02:13;7.37;;;6.67;;
9467;SDS011;4772;52.382;9.752;2023-05-21T00:04:41;11.83;;;7.57;;
9467;SDS011;4772;52.382;9.752;2023-05-21T00:07:07;7.07;;;6.47;;
9467;SDS011;4772;52.382;9.752;2023-05-21T00:09:34;9.93;;;7.20;;
9467;SDS011;4772;52.382;9.752;2023-05-21T00:12:02;9.93;;;7.10;;
9467;SDS011;4772;52.382;9.752;2023-05-21T00:14:28;8.50;;;6.80;;
9467;SDS011;4772;52.382;9.752;2023-05-21T00:16:54;7.53;;;6.63;;
9467;SDS011;4772;52.382;9.752;2023-05-21T00:19:20;7.80;;;6.97;;
9467;SDS011;4772;52.382;9.752;2023-05-21T00:21:46;7.80;;;7.10;;
9467;SDS011;4772;52.382;9.752;2023-05-21T00:24:12;8.10;;;7.27;;
9467;SDS011;4772;52.382;9.752;2023-05-21T00:26:38;7.87;;;6.67;;
9467;SDS011;4772;52.382;9.752;2023-05-21T00:29:04;8.00;;;6.97;;
9467;SDS011;4772;52.382;9.752;2023-05-21T00:31:30;7.87;;;7.07;;
9467;SDS011;4772;52.382;9.752;2023-05-21T00:33:56;10.80;;;7.57;;
9467;SDS011;4772;52.382;9.752;2023-05-21T00:36:22;7.20;;;6.50;;
9467;SDS011;4772;52.382;9.752;2023-05-21T00:38:48;9.93;;;6.30;;
9467;SDS011;4772;52.382;9.752;2023-05-21T00:41:15;7.37;;;6.67;;
9467;SDS011;4772;52.382;9.752;2023-05-21T00:43:41;8.80;;;6.57;;
9467;SDS011;4772;52.382;9.752;2023-05-21T00:46:19;8.70;;;7.07;;
9467;SDS011;4772;52.382;9.752;2023-05-21T00:48:46;8.40;;;6.93;;
9467;SDS011;4772;52.382;9.752;2023-05-21T00:51:15;7.80;;;6.93;;
9467;SDS011;4772;52.382;9.752;2023-05-21T00:53:42;8.57;;;6.90;;
9467;SDS011;4772;52.382;9.752;2023-05-21T00:56:08;8.37;;;7.47;;
9467;SDS011;4772;52.382;9.752;2023-05-21T00:58:34;8.67;;;6.63;;
9467;SDS011;4772;52.382;9.752;2023-05-21T01:01:00;9.07;;;7.20;;
9467;SDS011;4772;52.382;9.752;2023-05-21T01:03:28;8.93;;;7.43;;
9467;SDS011;4772;52.382;9.752;2023-05-21T01:05:54;8.00;;;6.53;;
9467;SDS011;4772;52.382;9.752;2023-05-21T01:08:24;11.63;;;6.80;;
9467;SDS011;4772;52.382;9.752;2023-05-21T01:10:51;8.83;;;6.67;;
9467;SDS011;4772;52.382;9.752;2023-05-21T01:13:17;7.07;;;6.37;;
9467;SDS011;4772;52.382;9.752;2023-05-21T01:15:44;9.20;;;6.77;;
9467;SDS011;4772;52.382;9.752;2023-05-21T01:18:11;8.00;;;7.30;;
9467;SDS011;4772;52.382;9.752;2023-05-21T01:20:38;7.10;;;6.40;;
9467;SDS011;4772;52.382;9.752;2023-05-21T01:23:06;7.93;;;6.90;;
9467;SDS011;4772;52.382;9.752;2023-05-21T01:25:33;8.00;;;6.97;;
9467;SDS011;4772;52.382;9.752;2023-05-21T01:27:59;9.30;;;7.13;;
9467;SDS011;4772;52.382;9.752;2023-05-21T01:30:25;7.90;;;6.40;;
9467;SDS011;4772;52.382;9.752;2023-05-21T01:40:25;7.97;;;6.93;;
9467;SDS011;4772;52.382;9.752;2023-05-21T01:42:54;7.30;;;6.60;;
9467;SDS011;4772;52.382;9.752;2023-05-21T01:45:21;8.20;;;6.53;;
9467;SDS011;4772;52.382;9.752;2023-05-21T01:47:49;8.63;;;7.13;;
9467;SDS011;4772;52.382;9.752;2023-05-21T01:50:17;7.97;;;6.57;;
9467;SDS011;4772;52.382;9.752;2023-05-21T01:52:53;10.60;;;6.90;;
9467;SDS011;4772;52.382;9.752;2023-05-21T01:55:20;7.50;;;6.80;;
9467;SDS011;4772;52.382;9.752;2023-05-21T01:57:53;7.57;;;6.63;;
9467;SDS011;4772;52.382;9.752;2023-05-21T02:00:20;7.63;;;6.73;;
9467;SDS011;4772;52.382;9.752;2023-05-21T02:02:46;7.30;;;6.57;;
9467;SDS011;4772;52.382;9.752;2023-05-21T02:05:12;7.30;;;6.53;;
9467;SDS011;4772;52.382;9.752;2023-05-21T02:07:38;8.93;;;6.80;;
9467;SDS011;4772;52.382;9.752;2023-05-21T02:10:05;8.07;;;7.27;;
9467;SDS011;4772;52.382;9.752;2023-05-21T02:12:31;7.90;;;7.20;;
9467;SDS011;4772;52.382;9.752;2023-05-21T02:14:58;8.90;;;6.80;;
9467;SDS011;4772;52.382;9.752;2023-05-21T02:17:23;8.43;;;6.63;;
9467;SDS011;4772;52.382;9.752;2023-05-21T02:19:50;10.63;;;7.27;;
9467;SDS011;4772;52.382;9.752;2023-05-21T02:22:16;7.80;;;7.00;;
9467;SDS011;4772;52.382;9.752;2023-05-21T02:24:42;10.17;;;7.03;;
9467;SDS011;4772;52.382;9.752;2023-05-21T02:27:08;9.37;;;5.67;;
9467;SDS011;4772;52.382;9.752;2023-05-21T02:29:35;8.27;;;6.93;;
9467;SDS011;4772;52.382;9.752;2023-05-21T02:32:01;8.23;;;6.57;;
9467;SDS011;4772;52.382;9.752;2023-05-21T02:34:27;6.97;;;6.27;;
9467;SDS011;4772;52.382;9.752;2023-05-21T02:36:57;7.33;;;6.63;;
9467;SDS011;4772;52.382;9.752;2023-05-21T02:39:23;7.77;;;6.50;;
9467;SDS011;4772;52.382;9.752;2023-05-21T02:41:50;8.33;;;6.27;;
9467;SDS011;4772;52.382;9.752;2023-05-21T02:44:16;8.37;;;6.87;;
9467;SDS011;4772;52.382;9.752;2023-05-21T02:46:43;7.40;;;6.60;;
9467;SDS011;4772;52.382;9.752;2023-05-21T02:49:09;9.13;;;7.80;;
9467;SDS011;4772;52.382;9.752;2023-05-21T02:51:35;7.77;;;6.33;;
9467;SDS011;4772;52.382;9.752;2023-05-21T02:54:02;8.63;;;6.63;;
9467;SDS011;4772;52.382;9.752;2023-05-21T02:56:28;8.07;;;6.17;;
9467;SDS011;4772;52.382;9.752;2023-05-21T02:58:54;7.37;;;6.27;;
9467;SDS011;4772;52.382;9.752;2023-05-21T03:01:20;7.37;;;6.60;;
9467;SDS011;4772;52.382;9.752;2023-05-21T03:03:46;7.47;;;6.60;;
9467;SDS011;4772;52.382;9.752;2023-05-21T03:06:12;7.93;;;6.73;;
9467;SDS011;4772;52.382;9.752;2023-05-21T03:08:38;11.33;;;6.60;;
9467;SDS011;4772;52.382;9.752;2023-05-21T03:11:04;10.50;;;6.53;;
9467;SDS011;4772;52.382;9.752;2023-05-21T03:13:30;10.57;;;6.43;;
9467;SDS011;4772;52.382;9.752;2023-05-21T03:15:56;7.07;;;5.97;;
9467;SDS011;4772;52.382;9.752;2023-05-21T03:18:22;7.70;;;7.00;;
9467;SDS011;4772;52.382;9.752;2023-05-21T03:20:48;8.10;;;6.63;;
9467;SDS011;4772;52.382;9.752;2023-05-21T03:23:14;7.90;;;6.23;;
9467;SDS011;4772;52.382;9.752;2023-05-21T03:25:40;7.23;;;6.33;;
9467;SDS011;4772;52.382;9.752;2023-05-21T03:28:06;9.83;;;6.10;;
9467;SDS011;4772;52.382;9.752;2023-05-21T03:30:34;8.77;;;6.33;;
9467;SDS011;4772;52.382;9.752;2023-05-21T03:33:01;11.03;;;6.50;;
9467;SDS011;4772;52.382;9.752;2023-05-21T03:35:27;7.73;;;6.20;;
9467;SDS011;4772;52.382;9.752;2023-05-21T03:37:53;9.10;;;5.80;;
9467;SDS011;4772;52.382;9.752;2023-05-21T03:40:19;7.17;;;6.47;;
9467;SDS011;4772;52.382;9.752;2023-05-21T03:42:46;6.80;;;5.90;;
9467;SDS011;4772;52.382;9.752;2023-05-21T03:45:12;8.03;;;6.00;;
9467;SDS011;4772;52.382;9.752;2023-05-21T03:47:38;8.37;;;6.07;;
9467;SDS011;4772;52.382;9.752;2023-05-21T03:50:05;6.87;;;5.73;;
9467;SDS011;4772;52.382;9.752;2023-05-21T03:52:33;7.53;;;6.20;;
9467;SDS011;4772;52.382;9.752;2023-05-21T03:54:59;8.07;;;5.90;;
9467;SDS011;4772;52.382;9.752;2023-05-21T03:57:25;8.33;;;5.97;;
9467;SDS011;4772;52.382;9.752;2023-05-21T03:59:51;7.67;;;6.20;;
9467;SDS011;4772;52.382;9.752;2023-05-21T04:02:17;7.30;;;5.83;;
9467;SDS011;4772;52.382;9.752;2023-05-21T04:04:43;6.93;;;5.90;;
9467;SDS011;4772;52.382;9.752;2023-05-21T04:07:09;6.40;;;5.70;;
9467;SDS011;4772;52.382;9.752;2023-05-21T04:09:38;8.57;;;6.07;;
9467;SDS011;4772;52.382;9.752;2023-05-21T04:12:04;10.13;;;5.90;;
9467;SDS011;4772;52.382;9.752;2023-05-21T04:14:31;6.30;;;5.37;;
9467;SDS011;4772;52.382;9.752;2023-05-21T04:16:58;7.23;;;5.60;;
9467;SDS011;4772;52.382;9.752;2023-05-21T04:19:24;8.60;;;6.27;;
9467;SDS011;4772;52.382;9.752;2023-05-21T04:21:50;8.00;;;5.90;;
9467;SDS011;4772;52.382;9.752;2023-05-21T04:24:16;11.43;;;6.50;;
9467;SDS011;4772;52.382;9.752;2023-05-21T04:26:42;7.73;;;6.00;;
9467;SDS011;4772;52.382;9.752;2023-05-21T04:29:08;7.03;;;5.53;;
9467;SDS011;4772;52.382;9.752;2023-05-21T04:31:34;8.17;;;5.53;;
9467;SDS011;4772;52.382;9.752;2023-05-21T04:34:00;7.60;;;6.00;;
9467;SDS011;4772;52.382;9.752;2023-05-21T04:36:26;7.23;;;5.87;;
9467;SDS011;4772;52.382;9.752;2023-05-21T04:38:52;8.37;;;5.90;;
9467;SDS011;4772;52.382;9.752;2023-05-21T04:41:18;6.17;;;5.53;;
9467;SDS011;4772;52.382;9.752;2023-05-21T04:43:45;7.97;;;5.87;;
9467;SDS011;4772;52.382;9.752;2023-05-21T04:46:11;10.00;;;5.00;;
9467;SDS011;4772;52.382;9.752;2023-05-21T04:48:37;6.73;;;5.53;;
9467;SDS011;4772;52.382;9.752;2023-05-21T04:51:05;7.00;;;6.23;;
9467;SDS011;4772;52.382;9.752;2023-05-21T04:53:31;6.90;;;5.70;;
9467;SDS011;4772;52.382;9.752;2023-05-21T04:55:57;10.03;;;5.73;;
9467;SDS011;4772;52.382;9.752;2023-05-21T04:58:25;6.43;;;5.50;;
9467;SDS011;4772;52.382;9.752;2023-05-21T05:00:51;7.03;;;5.33;;
9467;SDS011;4772;52.382;9.752;2023-05-21T05:03:17;6.30;;;5.60;;
9467;SDS011;4772;52.382;9.752;2023-05-21T05:05:43;6.83;;;5.30;;
9467;SDS011;4772;52.382;9.752;2023-05-21T05:08:09;6.50;;;5.50;;
9467;SDS011;4772;52.382;9.752;2023-05-21T05:10:36;7.53;;;5.60;;
9467;SDS011;4772;52.382;9.752;2023-05-21T05:13:02;7.87;;;5.57;;
9467;SDS011;4772;52.382;9.752;2023-05-21T05:15:28;11.70;;;6.00;;
9467;SDS011;4772;52.382;9.752;2023-05-21T05:17:54;6.97;;;5.90;;
9467;SDS011;4772;52.382;9.752;2023-05-21T05:20:20;10.13;;;6.13;;
9467;SDS011;4772;52.382;9.752;2023-05-21T05:22:46;5.87;;;5.27;;
9467;SDS011;4772;52.382;9.752;2023-05-21T05:25:12;8.17;;;6.60;;
9467;SDS011;4772;52.382;9.752;2023-05-21T05:27:44;9.17;;;6.63;;
9467;SDS011;4772;52.382;9.752;2023-05-21T05:30:11;7.10;;;6.40;;
9467;SDS011;4772;52.382;9.752;2023-05-21T05:32:37;8.20;;;6.30;;
9467;SDS011;4772;52.382;9.752;2023-05-21T05:35:03;8.17;;;6.43;;
9467;SDS011;4772;52.382;9.752;2023-05-21T05:37:29;7.37;;;6.57;;
9467;SDS011;4772;52.382;9.752;2023-05-21T05:39:57;8.10;;;6.40;;
9467;SDS011;4772;52.382;9.752;2023-05-21T05:42:23;12.80;;;6.70;;
9467;SDS011;4772;52.382;9.752;2023-05-21T05:44:49;8.10;;;6.80;;
9467;SDS011;4772;52.382;9.752;2023-05-21T05:47:15;8.93;;;6.40;;
9467;SDS011;4772;52.382;9.752;2023-05-21T05:49:41;9.17;;;6.97;;
9467;SDS011;4772;52.382;9.752;2023-05-21T05:52:07;9.93;;;7.13;;
9467;SDS011;4772;52.382;9.752;2023-05-21T05:54:33;9.97;;;7.37;;
9467;SDS011;4772;52.382;9.752;2023-05-21T05:56:59;11.17;;;8.10;;
9467;SDS011;4772;52.382;9.752;2023-05-21T05:59:25;8.00;;;7.20;;
9467;SDS011;4772;52.382;9.752;2023-05-21T06:01:51;11.30;;;8.03;;
9467;SDS011;4772;52.382;9.752;2023-05-21T06:04:17;10.13;;;8.30;;
9467;SDS011;4772;52.382;9.752;2023-05-21T06:06:43;10.33;;;8.27;;
9467;SDS011;4772;52.382;9.752;2023-05-21T06:09:10;8.43;;;7.57;;
9467;SDS011;4772;52.382;9.752;2023-05-21T06:11:35;11.20;;;8.60;;
9467;SDS011;4772;52.382;9.752;2023-05-21T06:14:02;12.13;;;8.80;;
9467;SDS011;4772;52.382;9.752;2023-05-21T06:16:28;14.10;;;8.90;;
9467;SDS011;4772;52.382;9.752;2023-05-21T06:18:55;10.40;;;8.60;;
9467;SDS011;4772;52.382;9.752;2023-05-21T06:21:21;10.67;;;8.97;;
9467;SDS011;4772;52.382;9.752;2023-05-21T06:23:47;9.00;;;8.10;;
9467;SDS011;4772;52.382;9.752;2023-05-21T06:26:13;9.53;;;8.50;;
9467;SDS011;4772;52.382;9.752;2023-05-21T06:28:39;10.53;;;8.90;;
9467;SDS011;4772;52.382;9.752;2023-05-21T06:31:05;11.40;;;9.37;;
9467;SDS011;4772;52.382;9.752;2023-05-21T06:33:31;11.27;;;9.23;;
9467;SDS011;4772;52.382;9.752;2023-05-21T06:35:57;11.53;;;9.63;;
9467;SDS011;4772;52.382;9.752;2023-05-21T06:38:23;10.50;;;9.40;;
9467;SDS011;4772;52.382;9.752;2023-05-21T06:40:49;10.23;;;9.00;;
9467;SDS011;4772;52.382;9.752;2023-05-21T06:43:15;11.70;;;9.57;;
9467;SDS011;4772;52.382;9.752;2023-05-21T06:45:41;11.30;;;9.17;;
9467;SDS011;4772;52.382;9.752;2023-05-21T06:48:07;10.67;;;9.27;;
9467;SDS011;4772;52.382;9.752;2023-05-21T06:50:33;10.80;;;9.30;;
9467;SDS011;4772;52.382;9.752;2023-05-21T06:52:59;12.20;;;9.90;;
9467;SDS011;4772;52.382;9.752;2023-05-21T06:55:25;13.53;;;9.70;;
9467;SDS011;4772;52.382;9.752;2023-05-21T06:57:51;11.43;;;9.60;;
9467;SDS011;4772;52.382;9.752;2023-05-21T07:00:17;13.20;;;10.27;;
9467;SDS011;4772;52.382;9.752;2023-05-21T07:02:43;11.50;;;10.40;;
9467;SDS011;4772;52.382;9.752;2023-05-21T07:05:09;12.00;;;10.80;;
9467;SDS011;4772;52.382;9.752;2023-05-21T07:07:35;12.53;;;10.87;;
9467;SDS011;4772;52.382;9.752;2023-05-21T07:10:01;12.57;;;11.27;;
9467;SDS011;4772;52.382;9.752;2023-05-21T07:12:27;14.57;;;11.70;;
9467;SDS011;4772;52.382;9.752;2023-05-21T07:14:53;12.47;;;11.27;;
9467;SDS011;4772;52.382;9.752;2023-05-21T07:17:19;14.63;;;11.57;;
9467;SDS011;4772;52.382;9.752;2023-05-21T07:19:45;13.27;;;11.50;;
9467;SDS011;4772;52.382;9.752;2023-05-21T07:22:11;12.70;;;11.37;;
9467;SDS011;4772;52.382;9.752;2023-05-21T07:24:37;13.43;;;11.73;;
9467;SDS011;4772;52.382;9.752;2023-05-21T07:27:03;13.57;;;11.27;;
9467;SDS011;4772;52.382;9.752;2023-05-21T07:29:31;14.93;;;12.90;;
9467;SDS011;4772;52.382;9.752;2023-05-21T07:31:57;13.97;;;12.47;;
9467;SDS011;4772;52.382;9.752;2023-05-21T07:34:23;13.70;;;12.17;;
9467;SDS011;4772;52.382;9.752;2023-05-21T07:36:49;14.07;;;12.60;;
9467;SDS011;4772;52.382;9.752;2023-05-21T07:39:15;13.47;;;12.17;;
9467;SDS011;4772;52.382;9.752;2023-05-21T07:41:41;13.40;;;12.00;;
9467;SDS011;4772;52.382;9.752;2023-05-21T07:44:07;16.60;;;13.70;;
9467;SDS011;4772;52.382;9.752;2023-05-21T07:46:33;15.70;;;12.67;;
9467;SDS011;4772;52.382;9.752;2023-05-21T07:48:59;14.07;;;12.53;;
9467;SDS011;4772;52.382;9.752;2023-05-21T07:51:25;14.27;;;12.87;;
9467;SDS011;4772;52.382;9.752;2023-05-21T07:53:51;16.43;;;13.57;;
9467;SDS011;4772;52.382;9.752;2023-05-21T07:56:17;14.93;;;13.30;;
9467;SDS011;4772;52.382;9.752;2023-05-21T07:58:43;15.07;;;13.23;;
9467;SDS011;4772;52.382;9.752;2023-05-21T08:01:12;15.17;;;13.57;;
9467;SDS011;4772;52.382;9.752;2023-05-21T08:03:38;16.40;;;13.53;;
9467;SDS011;4772;52.382;9.752;2023-05-21T08:06:06;16.57;;;13.70;;
9467;SDS011;4772;52.382;9.752;2023-05-21T08:08:32;14.77;;;12.90;;
9467;SDS011;4772;52.382;9.752;2023-05-21T08:10:58;16.40;;;14.70;;
9467;SDS011;4772;52.382;9.752;2023-05-21T08:13:24;14.90;;;13.30;;
9467;SDS011;4772;52.382;9.752;2023-05-21T08:15:50;14.47;;;12.93;;
9467;SDS011;4772;52.382;9.752;2023-05-21T08:18:16;15.37;;;13.13;;
9467;SDS011;4772;52.382;9.752;2023-05-21T08:20:42;14.70;;;13.20;;
9467;SDS011;4772;52.382;9.752;2023-05-21T08:23:09;14.77;;;13.27;;
9467;SDS011;4772;52.382;9.752;2023-05-21T08:25:35;17.63;;;14.40;;
9467;SDS011;4772;52.382;9.752;2023-05-21T08:28:01;16.83;;;14.20;;
9467;SDS011;4772;52.382;9.752;2023-05-21T08:30:27;14.32;;;12.93;;
9467;SDS011;4772;52.382;9.752;2023-05-21T08:32:53;14.63;;;13.00;;
9467;SDS011;4772;52.382;9.752;2023-05-21T08:35:19;14.65;;;13.20;;
9467;SDS011;4772;52.382;9.752;2023-05-21T08:37:45;14.50;;;13.00;;
9467;SDS011;4772;52.382;9.752;2023-05-21T08:40:11;13.98;;;12.52;;
9467;SDS011;4772;52.382;9.752;2023-05-21T08:42:44;14.35;;;13.02;;
9467;SDS011;4772;52.382;9.752;2023-05-21T08:45:10;15.75;;;14.18;;
9467;SDS011;4772;52.382;9.752;2023-05-21T08:47:42;15.75;;;14.15;;
9467;SDS011;4772;52.382;9.752;2023-05-21T08:50:08;15.52;;;14.10;;
9467;SDS011;4772;52.382;9.752;2023-05-21T08:52:34;17.35;;;15.18;;
9467;SDS011;4772;52.382;9.752;2023-05-21T08:55:02;16.98;;;15.20;;
9467;SDS011;4772;52.382;9.752;2023-05-21T08:57:28;16.85;;;15.15;;
9467;SDS011;4772;52.382;9.752;2023-05-21T08:59:55;17.05;;;14.68;;
9467;SDS011;4772;52.382;9.752;2023-05-21T09:02:21;19.33;;;15.25;;
9467;SDS011;4772;52.382;9.752;2023-05-21T09:04:49;17.42;;;15.73;;
9467;SDS011;4772;52.382;9.752;2023-05-21T09:07:15;17.73;;;15.90;;
9467;SDS011;4772;52.382;9.752;2023-05-21T09:09:46;18.08;;;16.25;;
9467;SDS011;4772;52.382;9.752;2023-05-21T09:12:13;18.00;;;16.20;;
9467;SDS011;4772;52.382;9.752;2023-05-21T09:14:39;19.33;;;17.42;;
9467;SDS011;4772;52.382;9.752;2023-05-21T09:17:06;17.83;;;15.90;;
9467;SDS011;4772;52.382;9.752;2023-05-21T09:19:32;18.55;;;16.75;;
9467;SDS011;4772;52.382;9.752;2023-05-21T09:22:01;18.33;;;16.48;;
9467;SDS011;4772;52.382;9.752;2023-05-21T09:24:30;17.60;;;15.90;;
9467;SDS011;4772;52.382;9.752;2023-05-21T09:26:57;18.30;;;16.48;;
9467;SDS011;4772;52.382;9.752;2023-05-21T09:29:23;17.85;;;16.10;;
9467;SDS011;4772;52.382;9.752;2023-05-21T09:31:50;17.98;;;16.30;;
9467;SDS011;4772;52.382;9.752;2023-05-21T09:34:18;17.85;;;15.88;;
9467;SDS011;4772;52.382;9.752;2023-05-21T09:36:45;17.63;;;15.73;;
9467;SDS011;4772;52.382;9.752;2023-05-21T09:39:12;17.90;;;16.13;;
9467;SDS011;4772;52.382;9.752;2023-05-21T09:41:51;16.98;;;15.23;;
9467;SDS011;4772;52.382;9.752;2023-05-21T09:44:17;17.98;;;15.32;;
9467;SDS011;4772;52.382;9.752;2023-05-21T09:46:44;18.23;;;16.27;;
9467;SDS011;4772;52.382;9.752;2023-05-21T09:49:30;17.92;;;16.10;;
9467;SDS011;4772;52.382;9.752;2023-05-21T09:51:56;18.25;;;16.45;;
9467;SDS011;4772;52.382;9.752;2023-05-21T09:54:23;17.63;;;15.95;;
9467;SDS011;4772;52.382;9.752;2023-05-21T09:56:50;17.30;;;15.55;;
9467;SDS011;4772;52.382;9.752;2023-05-21T09:59:19;17.55;;;15.23;;
9467;SDS011;4772;52.382;9.752;2023-05-21T10:01:46;16.17;;;14.57;;
9467;SDS011;4772;52.382;9.752;2023-05-21T10:04:14;16.70;;;15.20;;
9467;SDS011;4772;52.382;9.752;2023-05-21T10:06:41;17.48;;;15.60;;
9467;SDS011;4772;52.382;9.752;2023-05-21T10:09:08;16.88;;;15.27;;
9467;SDS011;4772;52.382;9.752;2023-05-21T10:11:35;16.00;;;14.40;;
9467;SDS011;4772;52.382;9.752;2023-05-21T10:14:08;17.20;;;15.52;;
9467;SDS011;4772;52.382;9.752;2023-05-21T10:16:35;15.63;;;14.18;;
9467;SDS011;4772;52.382;9.752;2023-05-21T10:19:01;16.58;;;15.07;;
9467;SDS011;4772;52.382;9.752;2023-05-21T10:21:28;16.45;;;14.85;;
9467;SDS011;4772;52.382;9.752;2023-05-21T10:23:55;16.10;;;14.50;;
9467;SDS011;4772;52.382;9.752;2023-05-21T10:26:22;15.85;;;14.23;;
9467;SDS011;4772;52.382;9.752;2023-05-21T10:28:52;15.63;;;14.02;;
9467;SDS011;4772;52.382;9.752;2023-05-21T10:31:19;15.32;;;13.85;;
9467;SDS011;4772;52.382;9.752;2023-05-21T10:33:45;16.42;;;14.63;;
9467;SDS011;4772;52.382;9.752;2023-05-21T10:36:12;15.13;;;13.68;;
9467;SDS011;4772;52.382;9.752;2023-05-21T10:38:38;15.68;;;14.10;;
9467;SDS011;4772;52.382;9.752;2023-05-21T10:41:05;15.52;;;14.00;;
9467;SDS011;4772;52.382;9.752;2023-05-21T10:51:27;15.38;;;13.95;;
9467;SDS011;4772;52.382;9.752;2023-05-21T10:59:35;15.57;;;14.07;;
9467;SDS011;4772;52.382;9.752;2023-05-21T11:02:04;14.63;;;13.13;;
9467;SDS011;4772;52.382;9.752;2023-05-21T11:04:31;14.88;;;13.48;;
9467;SDS011;4772;52.382;9.752;2023-05-21T11:06:58;13.52;;;12.32;;
9467;SDS011;4772;52.382;9.752;2023-05-21T11:09:25;13.95;;;12.60;;
9467;SDS011;4772;52.382;9.752;2023-05-21T11:11:52;14.07;;;12.77;;
9467;SDS011;4772;52.382;9.752;2023-05-21T11:14:28;15.23;;;13.52;;
9467;SDS011;4772;52.382;9.752;2023-05-21T11:17:02;14.45;;;13.23;;
9467;SDS011;4772;52.382;9.752;2023-05-21T11:22:04;14.20;;;12.90;;
9467;SDS011;4772;52.382;9.752;2023-05-21T11:24:30;13.00;;;11.90;;
9467;SDS011;4772;52.382;9.752;2023-05-21T11:26:58;12.80;;;11.73;;
9467;SDS011;4772;52.382;9.752;2023-05-21T11:29:42;13.77;;;12.55;;
9467;SDS011;4772;52.382;9.752;2023-05-21T11:32:09;14.23;;;12.98;;
9467;SDS011;4772;52.382;9.752;2023-05-21T11:34:36;12.88;;;11.45;;
9467;SDS011;4772;52.382;9.752;2023-05-21T11:39:41;13.30;;;12.15;;
9467;SDS011;4772;52.382;9.752;2023-05-21T11:42:08;13.80;;;12.45;;
9467;SDS011;4772;52.382;9.752;2023-05-21T11:44:44;13.00;;;11.80;;
9467;SDS011;4772;52.382;9.752;2023-05-21T11:47:15;13.32;;;12.23;;
9467;SDS011;4772;52.382;9.752;2023-05-21T11:49:41;14.07;;;12.63;;
9467;SDS011;4772;52.382;9.752;2023-05-21T11:52:08;12.93;;;11.73;;
9467;SDS011;4772;52.382;9.752;2023-05-21T11:54:41;13.32;;;12.13;;
9467;SDS011;4772;52.382;9.752;2023-05-21T11:57:10;13.07;;;11.88;;
9467;SDS011;4772;52.382;9.752;2023-05-21T11:59:36;14.02;;;12.73;;
9467;SDS011;4772;52.382;9.752;2023-05-21T12:02:03;13.15;;;11.95;;
9467;SDS011;4772;52.382;9.752;2023-05-21T12:04:29;12.13;;;11.13;;
9467;SDS011;4772;52.382;9.752;2023-05-21T12:06:55;13.05;;;11.88;;
9467;SDS011;4772;52.382;9.752;2023-05-21T12:09:22;13.30;;;12.02;;
9467;SDS011;4772;52.382;9.752;2023-05-21T12:11:48;12.70;;;11.45;;
9467;SDS011;4772;52.382;9.752;2023-05-21T12:14:15;12.80;;;11.60;;
9467;SDS011;4772;52.382;9.752;2023-05-21T12:16:41;13.05;;;11.75;;
9467;SDS011;4772;52.382;9.752;2023-05-21T12:19:08;12.98;;;11.77;;
9467;SDS011;4772;52.382;9.752;2023-05-21T12:21:34;13.13;;;11.95;;
9467;SDS011;4772;52.382;9.752;2023-05-21T12:24:00;12.40;;;11.30;;
9467;SDS011;4772;52.382;9.752;2023-05-21T12:26:26;12.68;;;11.50;;
9467;SDS011;4772;52.382;9.752;2023-05-21T12:28:56;12.85;;;11.52;;
9467;SDS011;4772;52.382;9.752;2023-05-21T12:31:22;13.27;;;11.98;;
9467;SDS011;4772;52.382;9.752;2023-05-21T12:33:49;13.40;;;12.32;;
9467;SDS011;4772;52.382;9.752;2023-05-21T12:36:33;13.23;;;12.02;;
9467;SDS011;4772;52.382;9.752;2023-05-21T12:39:02;13.32;;;12.15;;
9467;SDS011;4772;52.382;9.752;2023-05-21T12:41:28;13.35;;;11.77;;
9467;SDS011;4772;52.382;9.752;2023-05-21T12:43:54;12.50;;;11.45;;
9467;SDS011;4772;52.382;9.752;2023-05-21T12:46:20;13.70;;;11.80;;
9467;SDS011;4772;52.382;9.752;2023-05-21T12:48:47;13.45;;;11.48;;
9467;SDS011;4772;52.382;9.752;2023-05-21T12:51:15;11.85;;;10.65;;
9467;SDS011;4772;52.382;9.752;2023-05-21T12:53:41;12.93;;;11.65;;
9467;SDS011;4772;52.382;9.752;2023-05-21T12:56:10;13.32;;;12.05;;
9467;SDS011;4772;52.382;9.752;2023-05-21T12:58:37;12.63;;;11.13;;
9467;SDS011;4772;52.382;9.752;2023-05-21T13:01:10;11.57;;;10.50;;
9467;SDS011;4772;52.382;9.752;2023-05-21T13:03:45;13.27;;;11.68;;
9467;SDS011;4772;52.382;9.752;2023-05-21T13:06:11;13.25;;;11.88;;
9467;SDS011;4772;52.382;9.752;2023-05-21T13:08:37;12.73;;;11.48;;
9467;SDS011;4772;52.382;9.752;2023-05-21T13:11:03;13.35;;;11.35;;
9467;SDS011;4772;52.382;9.752;2023-05-21T13:13:30;12.65;;;11.30;;
9467;SDS011;4772;52.382;9.752;2023-05-21T13:15:56;12.98;;;11.82;;
9467;SDS011;4772;52.382;9.752;2023-05-21T13:18:24;11.82;;;10.88;;
9467;SDS011;4772;52.382;9.752;2023-05-21T13:20:50;13.35;;;11.77;;
9467;SDS011;4772;52.382;9.752;2023-05-21T13:23:16;13.00;;;11.80;;
9467;SDS011;4772;52.382;9.752;2023-05-21T13:25:42;12.38;;;11.20;;
9467;SDS011;4772;52.382;9.752;2023-05-21T13:28:08;12.80;;;11.57;;
9467;SDS011;4772;52.382;9.752;2023-05-21T13:30:37;12.68;;;11.38;;
9467;SDS011;4772;52.382;9.752;2023-05-21T13:33:04;12.82;;;11.82;;
9467;SDS011;4772;52.382;9.752;2023-05-21T13:35:30;12.10;;;11.00;;
9467;SDS011;4772;52.382;9.752;2023-05-21T13:37:56;13.35;;;12.05;;
9467;SDS011;4772;52.382;9.752;2023-05-21T13:40:22;12.45;;;11.15;;
9467;SDS011;4772;52.382;9.752;2023-05-21T13:42:48;12.60;;;11.40;;
9467;SDS011;4772;52.382;9.752;2023-05-21T13:45:15;12.35;;;11.25;;
9467;SDS011;4772;52.382;9.752;2023-05-21T13:47:42;12.02;;;10.88;;
9467;SDS011;4772;52.382;9.752;2023-05-21T13:50:08;12.65;;;11.55;;
9467;SDS011;4772;52.382;9.752;2023-05-21T13:52:35;13.93;;;12.13;;
9467;SDS011;4772;52.382;9.752;2023-05-21T13:55:01;12.45;;;11.32;;
9467;SDS011;4772;52.382;9.752;2023-05-21T13:57:28;13.45;;;12.27;;
9467;SDS011;4772;52.382;9.752;2023-05-21T13:59:55;12.55;;;11.55;;
9467;SDS011;4772;52.382;9.752;2023-05-21T14:02:21;13.57;;;12.02;;
9467;SDS011;4772;52.382;9.752;2023-05-21T14:04:47;13.00;;;11.70;;
9467;SDS011;4772;52.382;9.752;2023-05-21T14:07:13;13.02;;;11.80;;
9467;SDS011;4772;52.382;9.752;2023-05-21T14:09:39;13.98;;;12.77;;
9467;SDS011;4772;52.382;9.752;2023-05-21T14:12:06;14.18;;;12.90;;
9467;SDS011;4772;52.382;9.752;2023-05-21T14:14:32;13.82;;;12.57;;
9467;SDS011;4772;52.382;9.752;2023-05-21T14:16:58;13.32;;;12.02;;
9467;SDS011;4772;52.382;9.752;2023-05-21T14:19:24;14.00;;;12.63;;
9467;SDS011;4772;52.382;9.752;2023-05-21T14:21:50;13.43;;;11.82;;
9467;SDS011;4772;52.382;9.752;2023-05-21T14:24:16;13.15;;;12.05;;
9467;SDS011;4772;52.382;9.752;2023-05-21T14:26:42;14.05;;;12.75;;
9467;SDS011;4772;52.382;9.752;2023-05-21T14:29:09;14.05;;;12.73;;
9467;SDS011;4772;52.382;9.752;2023-05-21T14:31:35;13.15;;;12.02;;
9467;SDS011;4772;52.382;9.752;2023-05-21T14:34:04;13.13;;;12.07;;
9467;SDS011;4772;52.382;9.752;2023-05-21T14:36:33;15.00;;;13.50;;
9467;SDS011;4772;52.382;9.752;2023-05-21T14:38:59;14.85;;;13.45;;
9467;SDS011;4772;52.382;9.752;2023-05-21T14:41:25;14.60;;;13.18;;
9467;SDS011;4772;52.382;9.752;2023-05-21T14:43:51;13.77;;;12.57;;
9467;SDS011;4772;52.382;9.752;2023-05-21T14:46:17;14.07;;;12.40;;
9467;SDS011;4772;52.382;9.752;2023-05-21T14:48:43;14.77;;;12.85;;
9467;SDS011;4772;52.382;9.752;2023-05-21T14:51:13;14.98;;;12.68;;
9467;SDS011;4772;52.382;9.752;2023-05-21T14:53:39;18.65;;;12.70;;
9467;SDS011;4772;52.382;9.752;2023-05-21T14:56:05;14.77;;;13.38;;
9467;SDS011;4772;52.382;9.752;2023-05-21T14:58:31;14.68;;;13.23;;
9467;SDS011;4772;52.382;9.752;2023-05-21T15:00:57;14.27;;;13.10;;
9467;SDS011;4772;52.382;9.752;2023-05-21T15:03:23;13.82;;;12.65;;
9467;SDS011;4772;52.382;9.752;2023-05-21T15:05:49;13.85;;;12.63;;
9467;SDS011;4772;52.382;9.752;2023-05-21T15:08:15;14.48;;;12.98;;
9467;SDS011;4772;52.382;9.752;2023-05-21T15:10:41;14.60;;;13.10;;
9467;SDS011;4772;52.382;9.752;2023-05-21T15:13:07;14.15;;;12.82;;
9467;SDS011;4772;52.382;9.752;2023-05-21T15:15:33;15.00;;;13.15;;
9467;SDS011;4772;52.382;9.752;2023-05-21T15:17:59;14.52;;;13.18;;
9467;SDS011;4772;52.382;9.752;2023-05-21T15:20:25;14.82;;;13.30;;
9467;SDS011;4772;52.382;9.752;2023-05-21T15:22:51;14.13;;;12.90;;